»·PEaware :: N3021C KSBA-KSMX

N3021C :: KSBA-KSMX

FLIGHT INFORMATION

Flight Status: Arrived
Operator: Privately registered:
United States
More flights under this callsign
Pilot: Mark B. (9455)
Aircraft: CESSNA 172 SKYHAWK
(C172)
More flights by this aircraft type
Origin: KSBA Santa Barbara Mun
United States
Destination: KSMX Santa Maria Pub/Capt Hancock
United States
More flights between these airports :: More routes between these airports
Route: +GVO ORCUT
File this flight plan on PilotEdge
Remarks:
Altitude:
(Current/Filed)
6,000ft
Speed:
(Current/Filed)
115kts
Departed: 16-Apr-18 07:11 PM
Arrived: 16-Apr-18 07:36 PM
Distance/Time
Traveled:
41nm/0:25
Distance/Time
To Go:
Arrived

Flight Plot

Page will automatically refresh every two minutes.

Flight plan parsing failed; only flown route is shown


Map Options




Map Legend


Flown Route
Filed Route
Departure Airport
Arrival Airport
Navaid (VOR, NDB)
Fix

Horizontal Profiles

Position Reports

Time Latitude Longitude Heading Altitude Ground
Speed
16-Apr-18 18:39 33.822057 -116.496136 323 481ft 0kts
16-Apr-18 18:40 34.422408 -119.835607 340 17ft 0kts
16-Apr-18 18:41 34.422408 -119.835607 340 17ft 0kts
16-Apr-18 18:42 34.422408 -119.835607 340 17ft 0kts
16-Apr-18 18:43 34.422408 -119.835607 340 17ft 0kts
16-Apr-18 18:44 34.422408 -119.835607 340 17ft 0kts
16-Apr-18 18:45 34.422408 -119.835607 340 17ft 0kts
16-Apr-18 18:46 34.422408 -119.835607 340 17ft 0kts
16-Apr-18 18:47 34.422408 -119.835607 340 17ft 0kts
16-Apr-18 18:48 34.422408 -119.835607 340 17ft 0kts
16-Apr-18 18:49 34.422408 -119.835607 340 17ft 0kts
16-Apr-18 18:50 34.422408 -119.835607 340 17ft 0kts
16-Apr-18 18:51 34.422408 -119.835607 340 17ft 0kts
16-Apr-18 18:52 34.422408 -119.835607 340 17ft 0kts
16-Apr-18 18:53 34.422408 -119.835607 340 17ft 0kts
16-Apr-18 18:54 34.422408 -119.835607 340 17ft 0kts
16-Apr-18 18:55 34.422408 -119.835607 340 17ft 0kts
16-Apr-18 18:56 34.422408 -119.835607 340 17ft 0kts
16-Apr-18 18:57 34.422408 -119.835607 340 17ft 0kts
16-Apr-18 18:58 34.423571 -119.837496 346 17ft 16kts
16-Apr-18 18:59 34.426480 -119.836580 92 17ft 19kts
16-Apr-18 19:00 34.426796 -119.834639 4 17ft 0kts
16-Apr-18 19:01 34.426796 -119.834639 4 17ft 0kts
16-Apr-18 19:02 34.426796 -119.834639 4 17ft 0kts
16-Apr-18 19:03 34.426796 -119.834639 4 17ft 0kts
16-Apr-18 19:04 34.426796 -119.834639 4 17ft 0kts
16-Apr-18 19:05 34.426796 -119.834639 4 17ft 0kts
16-Apr-18 19:06 34.426796 -119.834639 4 17ft 0kts
16-Apr-18 19:07 34.426796 -119.834639 4 17ft 0kts
16-Apr-18 19:08 34.426796 -119.834639 4 17ft 0kts
16-Apr-18 19:09 34.426796 -119.834639 4 17ft 0kts
16-Apr-18 19:10 34.427597 -119.836862 267 17ft 54kts
16-Apr-18 19:11 34.425114 -119.863920 257 1005ft 82kts
16-Apr-18 19:12 34.419744 -119.891563 261 2082ft 86kts
16-Apr-18 19:13 34.416790 -119.919443 254 3084ft 87kts
16-Apr-18 19:14 34.415940 -119.946874 262 3980ft 89kts
16-Apr-18 19:15 34.412860 -119.976479 259 4903ft 90kts
16-Apr-18 19:16 34.408581 -120.006335 250 5768ft 91kts
16-Apr-18 19:17 34.416882 -120.036113 328 5988ft 110kts
16-Apr-18 19:18 34.444372 -120.051383 349 6016ft 109kts
16-Apr-18 19:19 34.473379 -120.064683 338 5956ft 117kts
16-Apr-18 19:20 34.503325 -120.078046 347 6018ft 116kts
16-Apr-18 19:21 34.532577 -120.093223 322 6015ft 117kts
16-Apr-18 19:22 34.556287 -120.120084 312 5911ft 125kts
16-Apr-18 19:23 34.580856 -120.147751 314 5656ft 120kts
16-Apr-18 19:24 34.603878 -120.179273 316 5108ft 125kts
16-Apr-18 19:25 34.629131 -120.208663 307 4769ft 128kts
16-Apr-18 19:26 34.652925 -120.243124 310 4302ft 136kts
16-Apr-18 19:27 34.679578 -120.276503 314 3635ft 138kts
16-Apr-18 19:28 34.704828 -120.308028 310 3520ft 128kts
16-Apr-18 19:29 34.730028 -120.336689 333 3567ft 125kts
16-Apr-18 19:30 34.762355 -120.356289 335 3227ft 135kts
16-Apr-18 19:31 34.795289 -120.378268 332 2711ft 136kts
16-Apr-18 19:32 34.828014 -120.402148 326 2093ft 137kts
16-Apr-18 19:33 34.862009 -120.423844 331 1259ft 128kts
16-Apr-18 19:34 34.884787 -120.438543 330 865ft 73kts
16-Apr-18 19:35 34.897935 -120.451987 317 265ft 29kts

Navigation Log

Ident Type
Flight plan parsing failed, navigation log unavailable